Time;durP1;ratioP1;P1;durP2;ratioP2;P2;SDS_P1;SDS_P2;PMS_P1;PMS_P2;Temp;Humidity;BMP_temperature;BMP_pressure;BME280_temperature;BME280_humidity;BME280_pressure;Samples;Min_cycle;Max_cycle;Signal;HPM_P1;HPM_P2
2022/03/17 00:01:19;;;;;;;22.05;14.85;;;11.60;99.90;;;;;;4988143;28;20501;-77
2022/03/17 00:03:50;;;;;;;23.52;15.95;;;11.70;99.90;;;;;;4997864;28;20022;-77
2022/03/17 00:06:15;;;;;;;21.00;14.45;;;11.60;99.90;;;;;;4970959;28;20120;-78
2022/03/17 00:08:41;;;;;;;25.10;16.98;;;11.70;99.90;;;;;;4993170;28;20030;-77
2022/03/17 00:11:06;;;;;;;23.08;15.23;;;11.60;99.90;;;;;;4993644;28;20393;-76
2022/03/17 00:13:32;;;;;;;25.60;17.95;;;11.60;99.90;;;;;;4968965;28;20022;-77
2022/03/17 00:15:58;;;;;;;27.35;12.65;;;11.70;99.90;;;;;;4991599;28;20034;-77
2022/03/17 00:18:23;;;;;;;26.00;17.10;;;11.70;99.90;;;;;;4969287;28;20037;-77
2022/03/17 00:20:49;;;;;;;25.10;16.83;;;11.60;99.90;;;;;;4984346;28;20096;-77
2022/03/17 00:23:14;;;;;;;25.60;16.20;;;11.60;99.90;;;;;;4987174;28;20038;-78
2022/03/17 00:25:40;;;;;;;22.38;15.57;;;11.70;99.90;;;;;;4991374;28;20511;-78
2022/03/17 00:28:06;;;;;;;23.25;14.75;;;11.70;99.90;;;;;;4990830;28;20037;-77
2022/03/17 00:30:31;;;;;;;25.98;16.80;;;11.70;99.90;;;;;;4990343;28;20052;-78
2022/03/17 00:32:57;;;;;;;23.35;16.48;;;11.60;99.90;;;;;;5002920;28;20490;-78
2022/03/17 00:38:08;;;;;;;24.08;16.08;;;11.60;99.90;;;;;;4993086;28;20099;-78
2022/03/17 00:40:38;;;;;;;27.92;18.48;;;11.60;99.90;;;;;;4985387;28;20029;-79
2022/03/17 00:43:08;;;;;;;22.42;16.17;;;11.60;99.90;;;;;;4968745;28;20087;-77
2022/03/17 00:45:34;;;;;;;21.02;16.58;;;11.60;99.90;;;;;;5005299;28;20034;-76
2022/03/17 00:47:59;;;;;;;24.80;15.02;;;11.60;99.90;;;;;;4985857;28;20037;-77
2022/03/17 00:50:25;;;;;;;26.70;19.17;;;11.60;99.90;;;;;;4987871;28;20037;-78
2022/03/17 00:52:50;;;;;;;23.00;16.98;;;11.60;99.90;;;;;;4990792;28;20033;-77
2022/03/17 00:55:16;;;;;;;23.17;18.25;;;11.60;99.90;;;;;;4984963;28;20029;-77
2022/03/17 00:57:42;;;;;;;25.30;16.58;;;11.60;99.90;;;;;;4989899;28;20084;-77
2022/03/17 01:00:09;;;;;;;23.88;17.83;;;11.60;99.90;;;;;;4985134;28;20088;-79
2022/03/17 01:02:34;;;;;;;24.92;18.60;;;11.60;99.90;;;;;;5001803;28;20065;-78
2022/03/17 01:05:00;;;;;;;26.02;16.67;;;11.60;99.90;;;;;;4985293;28;20448;-78
2022/03/17 01:07:25;;;;;;;25.45;16.83;;;11.60;99.90;;;;;;4973486;28;20095;-78
2022/03/17 01:09:51;;;;;;;20.25;11.45;;;11.60;99.90;;;;;;4979857;28;20094;-76
2022/03/17 01:12:17;;;;;;;25.42;16.65;;;11.60;99.90;;;;;;4985981;28;20095;-77
2022/03/17 01:14:42;;;;;;;25.15;17.38;;;11.60;99.90;;;;;;4977017;28;20125;-78
2022/03/17 01:17:08;;;;;;;22.67;15.40;;;11.60;99.90;;;;;;4972078;28;20037;-77
2022/03/17 01:19:34;;;;;;;23.48;17.02;;;11.50;99.90;;;;;;4982343;28;20520;-76
2022/03/17 01:21:59;;;;;;;25.75;17.90;;;11.60;99.90;;;;;;5003648;28;20139;-79
2022/03/17 01:24:25;;;;;;;23.55;16.40;;;11.60;99.90;;;;;;4977260;28;20029;-77
2022/03/17 01:26:50;;;;;;;31.70;17.58;;;11.60;99.90;;;;;;4986014;28;20037;-77
2022/03/17 01:29:16;;;;;;;25.23;17.45;;;11.50;99.90;;;;;;4990145;28;20500;-79
2022/03/17 01:31:41;;;;;;;24.55;17.55;;;11.50;99.90;;;;;;4984953;28;20505;-77
2022/03/17 01:34:07;;;;;;;25.92;17.70;;;11.50;99.90;;;;;;4978916;28;20060;-77
2022/03/17 01:36:32;;;;;;;25.77;17.33;;;11.50;99.90;;;;;;5001961;28;20057;-77
2022/03/17 01:38:58;;;;;;;27.40;18.25;;;11.50;99.90;;;;;;4983456;28;20037;-77
2022/03/17 01:41:24;;;;;;;28.27;19.17;;;11.50;99.90;;;;;;4987327;28;20448;-77
2022/03/17 01:43:49;;;;;;;26.23;19.10;;;11.50;99.90;;;;;;4974674;28;20026;-78
2022/03/17 01:46:15;;;;;;;27.98;17.38;;;11.50;99.90;;;;;;4971628;28;20461;-79
2022/03/17 01:48:42;;;;;;;26.15;18.67;;;11.50;99.90;;;;;;5001069;28;20030;-77
2022/03/17 01:51:08;;;;;;;24.65;18.17;;;11.50;99.90;;;;;;4982955;28;20025;-78
2022/03/17 01:53:33;;;;;;;29.20;18.63;;;11.50;99.90;;;;;;4988485;28;20041;-78
2022/03/17 01:55:59;;;;;;;29.35;19.80;;;11.40;99.90;;;;;;4982912;28;20082;-79
2022/03/17 01:58:25;;;;;;;27.77;18.92;;;11.50;99.90;;;;;;4975704;28;20112;-78
2022/03/17 02:00:51;;;;;;;24.17;17.63;;;11.40;99.90;;;;;;4972461;28;20137;-78
2022/03/17 02:03:17;;;;;;;26.48;17.35;;;11.50;99.90;;;;;;4975774;28;20041;-78
2022/03/17 02:05:43;;;;;;;26.23;17.80;;;11.50;99.90;;;;;;4981019;28;20040;-79
2022/03/17 02:08:09;;;;;;;24.88;17.80;;;11.50;99.90;;;;;;4986449;28;20034;-77
2022/03/17 02:13:08;;;;;;;26.70;17.05;;;11.50;99.90;;;;;;4991270;28;20049;-78
2022/03/17 02:13:21;;;;;;;26.77;18.33;;;11.50;99.90;;;;;;4989211;28;20482;-77
2022/03/17 02:15:51;;;;;;;28.67;18.27;;;11.50;99.90;;;;;;4988175;28;20033;-78
2022/03/17 02:18:17;;;;;;;26.40;18.25;;;11.50;99.90;;;;;;4972479;28;20033;-77
2022/03/17 02:20:43;;;;;;;28.75;19.83;;;11.50;99.90;;;;;;4986850;28;20389;-79
2022/03/17 02:26:03;;;;;;;27.23;19.70;;;11.40;99.90;;;;;;4989480;28;20460;-79
2022/03/17 02:28:31;;;;;;;32.17;22.73;;;11.50;99.90;;;;;;4985222;28;20041;-78
2022/03/17 02:30:57;;;;;;;25.00;18.30;;;11.40;99.90;;;;;;4968736;28;20168;-77
2022/03/17 02:33:22;;;;;;;24.55;16.92;;;11.40;99.90;;;;;;4986928;28;20029;-79
2022/03/17 02:35:53;;;;;;;26.80;17.83;;;11.40;99.90;;;;;;4999923;28;20386;-79
2022/03/17 02:38:19;;;;;;;29.17;19.13;;;11.40;99.90;;;;;;4982556;28;20042;-78
2022/03/17 02:40:46;;;;;;;28.48;16.70;;;11.40;99.90;;;;;;4987695;28;20043;-78
2022/03/17 02:43:14;;;;;;;29.73;18.02;;;11.40;99.90;;;;;;4992851;28;20046;-77
2022/03/17 02:45:42;;;;;;;31.52;19.30;;;11.30;99.90;;;;;;4970842;28;20409;-79
2022/03/17 02:48:07;;;;;;;28.50;18.50;;;11.30;99.90;;;;;;4989625;28;20371;-78
2022/03/17 02:50:34;;;;;;;26.88;19.30;;;11.40;99.90;;;;;;4982293;28;20087;-78
2022/03/17 02:53:05;;;;;;;24.20;17.73;;;11.30;99.90;;;;;;4967632;28;20034;-78
2022/03/17 02:55:32;;;;;;;26.67;18.30;;;11.40;99.90;;;;;;4986691;28;20041;-79
2022/03/17 02:57:57;;;;;;;26.13;18.08;;;11.40;99.90;;;;;;4989862;28;20134;-78
2022/03/17 03:00:23;;;;;;;31.23;21.38;;;11.30;99.90;;;;;;4965672;28;20057;-78
2022/03/17 03:02:49;;;;;;;28.73;20.10;;;11.30;99.90;;;;;;4999772;28;20462;-79
2022/03/17 03:05:15;;;;;;;29.23;20.23;;;11.30;99.90;;;;;;4989257;28;20120;-78
2022/03/17 03:07:41;;;;;;;28.55;20.33;;;11.40;99.90;;;;;;4983242;28;22498;-78
2022/03/17 03:10:07;;;;;;;25.65;17.90;;;11.30;99.90;;;;;;4986459;28;20152;-79
2022/03/17 03:12:33;;;;;;;26.42;17.75;;;11.30;99.90;;;;;;4972803;28;20442;-82
2022/03/17 03:14:58;;;;;;;30.27;18.30;;;11.30;99.90;;;;;;5003948;28;20485;-83
2022/03/17 03:17:25;;;;;;;29.30;21.13;;;11.40;99.90;;;;;;4995965;28;20503;-83
2022/03/17 03:19:51;;;;;;;27.95;18.65;;;11.30;99.90;;;;;;4986684;28;20946;-83
2022/03/17 03:22:17;;;;;;;30.42;19.85;;;11.30;99.90;;;;;;4979295;28;20030;-83
2022/03/17 03:24:43;;;;;;;28.80;19.17;;;11.30;99.90;;;;;;4987889;28;20056;-79
2022/03/17 03:27:09;;;;;;;36.08;22.27;;;11.30;99.90;;;;;;4980443;28;20057;-77
2022/03/17 03:29:34;;;;;;;30.58;21.00;;;11.30;99.90;;;;;;4977901;28;20045;-78
2022/03/17 03:32:03;;;;;;;25.23;16.77;;;11.30;99.90;;;;;;4974966;28;20025;-79
2022/03/17 03:34:29;;;;;;;29.67;19.30;;;11.30;99.90;;;;;;4979132;28;20037;-78
2022/03/17 03:39:39;;;;;;;31.17;19.25;;;11.30;99.90;;;;;;4994255;28;20816;-78
2022/03/17 03:42:05;;;;;;;29.35;19.58;;;11.30;99.90;;;;;;4967961;28;20034;-78
2022/03/17 03:44:31;;;;;;;25.60;17.48;;;11.30;99.90;;;;;;4990057;28;20489;-78
2022/03/17 03:46:56;;;;;;;31.00;19.33;;;11.30;99.90;;;;;;4970037;28;20056;-78
2022/03/17 03:49:22;;;;;;;27.05;18.80;;;11.30;99.90;;;;;;4973175;28;20099;-78
2022/03/17 03:51:48;;;;;;;28.63;19.75;;;11.30;99.90;;;;;;4975167;28;20040;-77
2022/03/17 03:54:17;;;;;;;33.03;21.42;;;11.20;99.90;;;;;;4972444;28;20065;-77
2022/03/17 03:56:46;;;;;;;29.23;20.48;;;11.30;99.90;;;;;;4985512;28;20744;-79
2022/03/17 03:59:17;;;;;;;34.42;21.95;;;11.30;99.90;;;;;;4974045;28;20048;-78
2022/03/17 04:01:43;;;;;;;28.48;19.38;;;11.20;99.90;;;;;;4982003;28;20114;-77
2022/03/17 04:04:09;;;;;;;34.40;21.42;;;11.40;99.90;;;;;;5003811;28;20542;-78
2022/03/17 04:06:53;;;;;;;28.30;19.02;;;11.30;99.90;;;;;;4973064;28;20122;-79
2022/03/17 04:09:21;;;;;;;30.48;17.40;;;11.30;99.90;;;;;;4972276;28;20077;-77
2022/03/17 04:11:46;;;;;;;32.58;21.73;;;11.30;99.90;;;;;;4990347;28;20033;-78
2022/03/17 04:14:13;;;;;;;28.40;19.67;;;11.40;99.90;;;;;;4984820;28;20022;-79
2022/03/17 04:16:38;;;;;;;30.50;20.65;;;11.30;99.90;;;;;;4969438;28;20025;-78
2022/03/17 04:19:04;;;;;;;27.20;19.02;;;11.30;99.90;;;;;;4982116;28;20040;-78
2022/03/17 04:21:30;;;;;;;27.38;18.00;;;11.30;99.90;;;;;;4968506;28;20041;-77
2022/03/17 04:23:55;;;;;;;29.60;20.02;;;11.30;99.90;;;;;;4984884;28;20032;-79
2022/03/17 04:26:21;;;;;;;33.45;20.85;;;11.30;99.90;;;;;;4968810;28;20026;-77
2022/03/17 04:28:46;;;;;;;32.10;22.88;;;11.30;99.90;;;;;;4983543;28;20050;-78
2022/03/17 04:31:12;;;;;;;29.73;18.70;;;11.30;99.90;;;;;;4995167;28;20061;-78
2022/03/17 04:33:37;;;;;;;33.22;22.55;;;11.30;99.90;;;;;;4974054;28;20125;-78
2022/03/17 04:36:04;;;;;;;31.88;20.30;;;11.30;99.90;;;;;;4974411;28;20551;-79
2022/03/17 04:38:29;;;;;;;32.80;20.60;;;11.30;99.90;;;;;;4980390;28;20080;-78
2022/03/17 04:40:55;;;;;;;31.17;20.33;;;11.20;99.90;;;;;;4983068;28;20041;-77
2022/03/17 04:43:21;;;;;;;33.80;19.77;;;11.20;99.90;;;;;;4980508;28;20136;-78
2022/03/17 04:45:46;;;;;;;30.08;20.10;;;11.30;99.90;;;;;;4968336;28;20034;-80
2022/03/17 04:48:12;;;;;;;31.70;17.92;;;11.20;99.90;;;;;;4968158;28;20398;-81
2022/03/17 04:50:38;;;;;;;19.85;12.02;;;11.20;99.90;;;;;;4968078;28;20038;-78
2022/03/17 04:55:48;;;;;;;27.05;18.40;;;11.20;99.90;;;;;;4990690;28;20090;-79
2022/03/17 04:58:16;;;;;;;28.15;15.77;;;11.20;99.90;;;;;;4991161;28;20516;-77
2022/03/17 05:00:41;;;;;;;31.67;20.17;;;11.20;99.90;;;;;;4985384;28;20390;-78
2022/03/17 05:03:08;;;;;;;28.73;15.05;;;11.20;99.90;;;;;;4979644;28;20037;-79
2022/03/17 05:05:33;;;;;;;30.25;18.52;;;11.10;99.90;;;;;;4991562;28;20091;-77
2022/03/17 05:07:59;;;;;;;33.63;20.52;;;11.10;99.90;;;;;;4985249;28;20033;-78
2022/03/17 05:10:24;;;;;;;27.60;14.10;;;11.10;99.90;;;;;;4989003;28;20033;-78
2022/03/17 05:12:50;;;;;;;36.80;20.67;;;11.10;99.90;;;;;;4980137;28;20117;-78
2022/03/17 05:15:16;;;;;;;24.38;13.70;;;11.10;99.90;;;;;;4971728;28;20041;-77
2022/03/17 05:17:42;;;;;;;33.05;20.15;;;11.00;99.90;;;;;;4987369;28;20527;-77
2022/03/17 05:20:11;;;;;;;36.78;22.25;;;11.00;99.90;;;;;;5006088;28;20177;-78
2022/03/17 05:22:37;;;;;;;34.58;19.13;;;10.90;99.90;;;;;;4972567;28;20467;-78
2022/03/17 05:25:06;;;;;;;41.88;27.58;;;10.90;99.90;;;;;;4999053;28;20113;-79
2022/03/17 05:27:35;;;;;;;40.00;24.80;;;10.80;99.90;;;;;;4999762;28;20557;-78
2022/03/17 05:30:00;;;;;;;31.50;17.60;;;10.80;99.90;;;;;;5010136;28;20037;-79
2022/03/17 05:32:26;;;;;;;20.67;11.85;;;10.80;99.90;;;;;;4984149;28;20033;-76
2022/03/17 05:34:51;;;;;;;38.47;23.17;;;10.80;99.90;;;;;;4990027;28;20038;-78
2022/03/17 05:37:17;;;;;;;33.20;19.77;;;10.70;99.90;;;;;;4970049;28;20036;-76
2022/03/17 05:39:42;;;;;;;34.40;18.95;;;10.70;99.90;;;;;;4973302;28;20045;-77
2022/03/17 05:42:08;;;;;;;35.45;22.90;;;10.60;99.90;;;;;;4975718;28;20030;-77
2022/03/17 05:44:34;;;;;;;44.25;29.05;;;10.60;99.90;;;;;;4996422;28;20044;-78
2022/03/17 05:47:00;;;;;;;39.83;22.88;;;10.50;99.90;;;;;;4987051;28;20120;-77
2022/03/17 05:49:25;;;;;;;36.88;24.27;;;10.40;99.90;;;;;;4969554;28;20056;-76
2022/03/17 05:51:51;;;;;;;37.40;24.55;;;10.40;99.90;;;;;;4985868;28;20029;-78
2022/03/17 05:54:16;;;;;;;31.85;18.90;;;10.40;99.90;;;;;;4995152;28;20044;-77
2022/03/17 05:56:42;;;;;;;44.53;27.40;;;10.40;99.90;;;;;;4987275;28;20042;-77
2022/03/17 05:59:07;;;;;;;42.15;25.38;;;10.30;99.90;;;;;;4977506;28;20047;-77
2022/03/17 06:01:33;;;;;;;34.42;16.77;;;10.20;99.90;;;;;;4991561;28;20030;-77
2022/03/17 06:03:58;;;;;;;42.20;25.52;;;10.20;99.90;;;;;;4986487;28;20033;-75
2022/03/17 06:06:24;;;;;;;48.60;27.75;;;10.20;99.90;;;;;;5005349;28;20033;-76
2022/03/17 06:08:49;;;;;;;23.15;13.80;;;10.20;99.90;;;;;;4991267;28;20395;-75
2022/03/17 06:11:16;;;;;;;43.17;24.88;;;10.20;99.90;;;;;;4981724;28;20116;-75
2022/03/17 06:13:43;;;;;;;49.22;30.00;;;10.10;99.90;;;;;;4984510;28;20108;-76
2022/03/17 06:16:09;;;;;;;48.97;29.08;;;10.10;99.90;;;;;;4982522;28;20025;-76
2022/03/17 06:18:34;;;;;;;33.10;18.60;;;10.10;99.90;;;;;;4975385;28;20411;-75
2022/03/17 06:21:00;;;;;;;37.78;22.10;;;10.00;99.90;;;;;;4983667;28;20087;-78
2022/03/17 06:23:25;;;;;;;46.97;27.77;;;10.00;99.90;;;;;;4970204;28;20846;-77
2022/03/17 06:25:51;;;;;;;45.50;26.95;;;10.10;99.90;;;;;;4986413;28;20568;-77
2022/03/17 06:28:18;;;;;;;45.17;27.88;;;10.00;99.90;;;;;;4981580;28;20080;-77
2022/03/17 06:30:44;;;;;;;41.67;25.58;;;10.00;99.90;;;;;;5000108;28;20053;-77
2022/03/17 06:33:09;;;;;;;38.60;23.50;;;10.00;99.90;;;;;;4976478;28;20033;-78
2022/03/17 06:35:35;;;;;;;28.30;15.73;;;9.90;99.90;;;;;;4987615;28;20045;-77
2022/03/17 06:38:01;;;;;;;26.70;15.45;;;9.90;99.90;;;;;;4990639;28;20034;-75
2022/03/17 06:40:27;;;;;;;21.77;14.52;;;9.90;99.90;;;;;;4980980;28;20037;-77
2022/03/17 06:42:54;;;;;;;37.03;22.98;;;9.80;99.90;;;;;;4983144;28;20394;-76
2022/03/17 06:45:19;;;;;;;41.28;25.58;;;9.80;99.90;;;;;;4989612;28;20380;-78
2022/03/17 06:47:45;;;;;;;47.58;30.90;;;9.70;99.90;;;;;;5001180;28;20104;-77
2022/03/17 06:50:11;;;;;;;47.08;29.65;;;9.60;99.90;;;;;;4975103;28;20044;-77
2022/03/17 06:52:37;;;;;;;55.08;34.20;;;9.60;99.90;;;;;;4967380;28;20057;-80
2022/03/17 06:55:03;;;;;;;55.83;33.28;;;9.60;99.90;;;;;;4975641;28;20067;-78
2022/03/17 06:57:28;;;;;;;57.40;34.83;;;9.50;99.90;;;;;;4968843;28;20467;-77
2022/03/17 06:59:54;;;;;;;59.85;36.10;;;9.50;99.90;;;;;;4978007;28;20032;-78
2022/03/17 07:02:20;;;;;;;62.78;36.15;;;9.50;99.90;;;;;;4980992;28;20398;-77
2022/03/17 07:04:45;;;;;;;57.58;33.53;;;9.40;99.90;;;;;;4989203;28;20033;-78
2022/03/17 07:07:11;;;;;;;58.13;34.20;;;9.40;99.90;;;;;;4982610;28;20550;-77
2022/03/17 07:09:37;;;;;;;55.75;31.20;;;9.40;99.90;;;;;;4984541;28;20129;-76
2022/03/17 07:12:04;;;;;;;41.30;24.30;;;9.40;99.90;;;;;;4998789;28;20075;-77
2022/03/17 07:14:29;;;;;;;51.70;29.40;;;9.40;99.90;;;;;;4969355;28;20034;-77
2022/03/17 07:16:55;;;;;;;43.25;23.70;;;9.40;99.90;;;;;;4990610;28;20452;-77
2022/03/17 07:19:58;;;;;;;41.00;24.17;;;9.30;99.90;;;;;;4991491;28;20022;-78
2022/03/17 07:22:25;;;;;;;39.90;24.35;;;9.30;99.90;;;;;;5001053;28;20044;-78
2022/03/17 07:24:50;;;;;;;38.25;23.10;;;9.10;99.90;;;;;;4992153;28;20413;-77
2022/03/17 07:27:16;;;;;;;35.25;21.13;;;9.20;99.90;;;;;;4997031;28;20037;-77
2022/03/17 07:29:41;;;;;;;36.33;21.63;;;9.20;99.90;;;;;;4986577;28;20025;-76
2022/03/17 07:32:07;;;;;;;32.05;19.35;;;9.10;99.90;;;;;;4993478;28;20468;-78
2022/03/17 07:34:32;;;;;;;30.08;19.15;;;9.10;99.90;;;;;;4982617;28;20041;-78
2022/03/17 07:36:58;;;;;;;23.98;14.70;;;9.10;99.90;;;;;;4985661;28;20432;-77
2022/03/17 07:39:23;;;;;;;34.13;19.88;;;9.10;99.90;;;;;;5007264;28;20041;-77
2022/03/17 07:41:49;;;;;;;46.05;26.55;;;9.00;99.90;;;;;;4967518;28;20029;-78
2022/03/17 07:44:15;;;;;;;41.10;25.13;;;8.90;99.90;;;;;;4974581;28;20053;-77
2022/03/17 07:46:41;;;;;;;41.97;27.63;;;8.90;99.90;;;;;;4982813;28;20449;-77
2022/03/17 07:49:06;;;;;;;35.15;21.70;;;9.00;99.90;;;;;;4975669;28;20116;-77
2022/03/17 07:51:32;;;;;;;38.78;24.00;;;9.00;99.90;;;;;;4970299;28;20122;-78
2022/03/17 07:53:57;;;;;;;40.08;21.33;;;8.90;99.90;;;;;;4988244;28;20096;-78
2022/03/17 07:56:23;;;;;;;27.50;18.38;;;8.90;99.90;;;;;;4984615;28;20057;-78
2022/03/17 07:58:48;;;;;;;27.42;17.42;;;8.90;99.90;;;;;;4973098;28;20108;-79
2022/03/17 08:01:14;;;;;;;27.30;17.52;;;8.80;99.90;;;;;;4978124;28;20734;-77
2022/03/17 08:03:40;;;;;;;25.92;16.10;;;8.80;99.90;;;;;;4972553;28;20045;-78
2022/03/17 08:06:06;;;;;;;21.02;12.48;;;8.70;99.90;;;;;;5002008;28;20138;-78
2022/03/17 08:08:34;;;;;;;19.23;12.50;;;8.70;99.90;;;;;;4992488;28;20076;-79
2022/03/17 08:10:59;;;;;;;20.52;10.68;;;8.80;99.90;;;;;;4974513;28;20124;-77
2022/03/17 08:13:25;;;;;;;13.23;8.30;;;8.70;99.90;;;;;;4967107;28;20477;-77
2022/03/17 08:15:51;;;;;;;15.25;9.43;;;8.70;99.90;;;;;;5015194;28;20029;-81
2022/03/17 08:18:16;;;;;;;17.73;9.52;;;8.70;99.90;;;;;;4978264;28;20037;-77
2022/03/17 08:20:42;;;;;;;15.02;8.38;;;8.80;99.90;;;;;;4983514;28;20033;-80
2022/03/17 08:23:08;;;;;;;14.15;7.45;;;8.80;99.90;;;;;;4969459;28;20337;-78
2022/03/17 08:25:34;;;;;;;12.48;6.05;;;8.90;99.90;;;;;;4988461;28;20038;-77
2022/03/17 08:28:02;;;;;;;13.95;6.30;;;8.80;99.90;;;;;;4969750;28;20485;-78
2022/03/17 08:30:28;;;;;;;7.80;5.03;;;8.80;99.90;;;;;;5000489;28;20037;-78
2022/03/17 08:32:54;;;;;;;12.93;6.90;;;8.80;99.90;;;;;;4992655;28;20041;-80
2022/03/17 08:35:20;;;;;;;14.43;5.95;;;8.90;99.90;;;;;;4988032;28;20033;-78
2022/03/17 08:37:45;;;;;;;15.25;6.10;;;8.90;99.90;;;;;;4990145;28;20037;-77
2022/03/17 08:40:12;;;;;;;11.63;6.90;;;9.00;99.90;;;;;;4978236;28;20060;-80
2022/03/17 08:42:38;;;;;;;10.93;5.93;;;8.90;99.90;;;;;;4990364;28;20045;-80
2022/03/17 08:49:18;;;;;;;12.13;6.18;;;8.90;99.90;;;;;;4987720;28;20030;-78
2022/03/17 08:50:38;;;;;;;12.70;4.90;;;8.80;99.90;;;;;;4990481;28;20060;-78
2022/03/17 08:53:03;;;;;;;10.35;5.22;;;8.90;99.90;;;;;;4987816;28;20486;-78
2022/03/17 08:55:29;;;;;;;10.88;4.70;;;8.90;99.90;;;;;;4984425;28;20117;-79
2022/03/17 08:57:55;;;;;;;10.30;4.38;;;8.90;99.90;;;;;;4992328;28;20064;-78
2022/03/17 09:00:22;;;;;;;13.60;3.97;;;9.00;99.90;;;;;;4985943;28;20120;-78
2022/03/17 09:02:48;;;;;;;8.13;3.58;;;9.00;99.90;;;;;;4975879;28;20565;-79
2022/03/17 09:05:14;;;;;;;8.25;3.42;;;8.90;99.90;;;;;;4984595;28;20528;-79
2022/03/17 09:07:40;;;;;;;6.75;3.10;;;9.00;99.90;;;;;;4967379;28;20038;-79
2022/03/17 09:10:05;;;;;;;9.00;3.90;;;9.10;99.90;;;;;;4975652;28;20088;-79
2022/03/17 09:12:33;;;;;;;6.88;3.10;;;9.10;99.90;;;;;;4971063;28;20042;-78
2022/03/17 09:14:59;;;;;;;10.18;3.00;;;9.20;99.90;;;;;;4989248;28;20595;-80
2022/03/17 09:17:26;;;;;;;11.68;3.28;;;9.30;99.90;;;;;;4991042;28;20033;-78
2022/03/17 09:19:52;;;;;;;15.25;6.10;;;9.40;99.90;;;;;;4970089;28;20502;-81
2022/03/17 09:22:17;;;;;;;6.15;2.75;;;9.50;99.90;;;;;;4985546;28;20041;-79
2022/03/17 09:24:43;;;;;;;11.57;4.10;;;9.60;99.90;;;;;;4967864;28;20049;-79
2022/03/17 09:27:09;;;;;;;8.32;3.03;;;9.60;99.90;;;;;;4970754;28;20029;-79
2022/03/17 09:29:38;;;;;;;6.50;3.30;;;9.60;99.90;;;;;;4986407;28;20112;-79
2022/03/17 09:32:04;;;;;;;9.38;3.70;;;9.70;99.90;;;;;;4987056;28;20029;-79
2022/03/17 09:34:31;;;;;;;13.02;5.13;;;9.80;99.90;;;;;;4996072;28;20038;-79
2022/03/17 09:36:57;;;;;;;8.38;4.35;;;9.70;99.90;;;;;;4991094;28;20507;-79
2022/03/17 09:42:07;;;;;;;11.20;4.30;;;9.80;99.90;;;;;;4990197;28;20521;-80
2022/03/17 09:44:33;;;;;;;8.75;3.38;;;9.90;99.90;;;;;;4971467;28;20037;-79
2022/03/17 09:46:59;;;;;;;9.10;3.35;;;9.90;99.90;;;;;;4993645;28;20054;-79
2022/03/17 09:49:26;;;;;;;6.75;3.75;;;9.90;99.90;;;;;;4969609;28;20036;-80
2022/03/17 09:51:55;;;;;;;9.07;4.43;;;9.90;99.90;;;;;;4983249;28;20038;-79
2022/03/17 09:54:21;;;;;;;9.85;4.28;;;9.90;99.90;;;;;;4972488;28;20125;-79
2022/03/17 09:56:46;;;;;;;7.90;4.00;;;9.90;99.90;;;;;;4975869;28;20152;-80
2022/03/17 09:59:12;;;;;;;12.90;5.07;;;9.90;99.90;;;;;;4973763;28;20030;-79
2022/03/17 10:01:37;;;;;;;9.43;4.28;;;9.90;99.90;;;;;;4967752;28;20034;-79
2022/03/17 10:04:03;;;;;;;11.05;5.03;;;9.90;99.90;;;;;;4997196;28;20030;-80
2022/03/17 10:06:29;;;;;;;11.80;5.25;;;9.90;99.90;;;;;;4977748;28;20038;-78
2022/03/17 10:08:55;;;;;;;16.90;5.18;;;10.00;99.90;;;;;;4982356;28;20065;-79
2022/03/17 10:11:25;;;;;;;11.52;4.22;;;10.00;99.90;;;;;;4968895;28;20034;-79
2022/03/17 10:13:50;;;;;;;10.05;3.38;;;9.90;99.90;;;;;;4974913;28;20033;-78
2022/03/17 10:16:20;;;;;;;13.15;3.53;;;9.90;99.90;;;;;;4974756;28;20025;-79
2022/03/17 10:18:46;;;;;;;11.13;3.58;;;10.00;99.90;;;;;;5004904;28;20445;-81
2022/03/17 10:21:17;;;;;;;7.22;2.75;;;10.20;99.90;;;;;;4967445;28;20026;-79
2022/03/17 10:23:50;;;;;;;6.68;2.15;;;10.20;99.90;;;;;;4993527;28;20041;-78
2022/03/17 10:26:38;;;;;;;8.52;3.00;;;10.30;99.90;;;;;;4968728;28;20046;-79
2022/03/17 10:29:10;;;;;;;12.10;3.17;;;10.40;99.90;;;;;;4999691;28;20389;-79
2022/03/17 10:31:56;;;;;;;9.95;2.92;;;10.40;99.90;;;;;;4975764;28;20129;-78
2022/03/17 10:34:23;;;;;;;7.10;3.03;;;10.60;99.90;;;;;;4991702;28;20022;-78
2022/03/17 10:36:49;;;;;;;10.20;3.17;;;10.80;99.90;;;;;;4991602;28;20029;-78
2022/03/17 10:39:15;;;;;;;5.57;3.50;;;10.90;99.90;;;;;;4989773;28;20048;-78
2022/03/17 10:41:45;;;;;;;11.15;3.13;;;11.10;99.90;;;;;;4972960;28;20038;-79
2022/03/17 10:44:12;;;;;;;7.00;2.13;;;11.20;99.90;;;;;;4975228;28;20489;-77
2022/03/17 10:46:38;;;;;;;5.47;2.83;;;11.30;99.90;;;;;;4989254;28;20049;-78
2022/03/17 10:49:07;;;;;;;10.30;2.35;;;11.20;99.90;;;;;;4984492;28;20188;-78
2022/03/17 10:51:42;;;;;;;6.43;2.28;;;11.50;99.90;;;;;;4982360;28;20064;-79
2022/03/17 10:54:15;;;;;;;4.43;2.75;;;11.60;99.90;;;;;;4986188;28;20041;-78
2022/03/17 10:56:41;;;;;;;7.95;1.55;;;11.70;99.90;;;;;;4988806;28;20112;-78
2022/03/17 10:59:09;;;;;;;5.18;1.55;;;11.70;99.90;;;;;;4975282;28;20509;-77
2022/03/17 11:01:38;;;;;;;4.32;1.30;;;11.80;99.90;;;;;;4975398;28;20404;-78
2022/03/17 11:04:04;;;;;;;4.25;1.48;;;11.90;99.90;;;;;;4984561;28;20575;-79
2022/03/17 11:06:32;;;;;;;9.25;2.38;;;11.90;99.90;;;;;;4996053;28;20164;-78
2022/03/17 11:09:01;;;;;;;9.07;2.05;;;12.10;99.90;;;;;;4989642;28;20033;-77
2022/03/17 11:11:28;;;;;;;7.47;1.55;;;12.10;99.90;;;;;;4997413;28;20057;-79
2022/03/17 11:13:56;;;;;;;12.38;2.30;;;12.00;99.90;;;;;;4979850;28;20105;-77
2022/03/17 11:16:22;;;;;;;5.78;1.45;;;12.20;99.90;;;;;;4966664;28;20046;-78
2022/03/17 11:18:48;;;;;;;10.98;1.60;;;12.20;99.90;;;;;;4991084;28;20041;-77
2022/03/17 11:21:19;;;;;;;5.95;1.55;;;12.30;99.90;;;;;;4987503;28;20104;-77
2022/03/17 11:24:01;;;;;;;6.50;1.48;;;12.20;99.90;;;;;;4974163;28;20153;-76
2022/03/17 11:26:37;;;;;;;12.73;1.75;;;12.20;99.90;;;;;;4974868;28;20121;-77
2022/03/17 11:29:10;;;;;;;3.78;1.15;;;12.30;99.90;;;;;;4975991;28;20029;-77
2022/03/17 11:32:05;;;;;;;7.72;1.52;;;12.20;99.90;;;;;;4998131;28;20046;-79
2022/03/17 11:34:46;;;;;;;7.90;1.55;;;12.50;99.90;;;;;;4989064;28;20084;-78
2022/03/17 11:37:21;;;;;;;8.70;1.90;;;12.50;99.90;;;;;;4987496;28;20493;-78
2022/03/17 11:39:57;;;;;;;7.28;2.17;;;12.60;99.90;;;;;;5013291;28;20034;-80
2022/03/17 11:42:56;;;;;;;7.00;1.90;;;12.70;99.90;;;;;;4986077;28;20037;-77
2022/03/17 11:45:22;;;;;;;13.23;2.50;;;12.90;99.90;;;;;;5002850;28;20105;-81
2022/03/17 11:47:48;;;;;;;8.32;2.10;;;13.00;99.90;;;;;;5002704;28;20120;-77
2022/03/17 11:50:28;;;;;;;7.95;2.15;;;13.00;99.90;;;;;;4996639;28;20402;-76
2022/03/17 11:52:58;;;;;;;9.50;2.05;;;13.20;99.90;;;;;;5016324;28;20037;-78
2022/03/17 11:55:33;;;;;;;12.52;3.10;;;13.40;99.90;;;;;;4999569;28;20128;-78
2022/03/17 11:58:18;;;;;;;9.07;2.80;;;13.50;99.90;;;;;;4998678;28;20485;-78
2022/03/17 12:00:53;;;;;;;12.95;2.47;;;13.60;99.90;;;;;;5017172;28;20030;-79
2022/03/17 12:03:29;;;;;;;10.25;3.08;;;13.80;99.90;;;;;;5004235;28;20424;-77
2022/03/17 12:06:13;;;;;;;11.13;2.25;;;13.70;99.90;;;;;;4975210;28;20030;-77
2022/03/17 12:09:02;;;;;;;7.53;2.20;;;13.70;99.90;;;;;;4991267;28;20041;-77
2022/03/17 12:11:36;;;;;;;5.30;1.63;;;13.80;99.90;;;;;;5009258;28;20461;-78
2022/03/17 12:14:21;;;;;;;12.02;1.73;;;13.70;99.90;;;;;;5004434;28;20029;-79
2022/03/17 12:16:49;;;;;;;10.05;2.60;;;14.10;99.90;;;;;;5021595;28;20034;-79
2022/03/17 12:19:39;;;;;;;7.50;1.95;;;14.20;99.90;;;;;;5009882;28;20284;-80
2022/03/17 12:22:06;;;;;;;7.30;1.67;;;14.40;99.90;;;;;;5006284;28;20406;-79
2022/03/17 12:24:47;;;;;;;6.97;1.90;;;14.20;99.90;;;;;;4992203;28;20029;-79
2022/03/17 12:27:24;;;;;;;7.15;2.47;;;14.30;99.90;;;;;;4990495;28;20046;-79
2022/03/17 12:29:57;;;;;;;8.77;2.08;;;14.30;99.90;;;;;;5005285;28;20038;-79
2022/03/17 12:32:23;;;;;;;9.10;2.17;;;14.20;99.90;;;;;;4991449;28;20030;-80
2022/03/17 12:34:51;;;;;;;5.10;1.65;;;14.20;99.90;;;;;;5004621;28;20034;-78
2022/03/17 12:37:18;;;;;;;8.45;1.70;;;14.20;99.90;;;;;;4991989;28;20029;-78
2022/03/17 12:39:51;;;;;;;10.15;1.65;;;14.10;99.90;;;;;;4979739;28;20049;-78
2022/03/17 12:42:22;;;;;;;9.73;2.40;;;14.10;99.90;;;;;;5006257;28;20067;-79
2022/03/17 12:45:05;;;;;;;12.68;1.80;;;14.20;99.90;;;;;;4976382;28;20038;-79
2022/03/17 12:47:32;;;;;;;9.60;2.03;;;14.10;99.90;;;;;;5010280;28;20033;-77
2022/03/17 12:49:59;;;;;;;6.57;1.40;;;14.20;99.90;;;;;;4975920;28;20030;-78
2022/03/17 12:52:28;;;;;;;4.50;1.08;;;13.90;99.90;;;;;;4988070;28;20033;-78
2022/03/17 12:54:58;;;;;;;8.20;1.60;;;14.10;99.90;;;;;;4990351;28;20036;-78